createdAt,value
2018-05-14T00:02:22.702Z,15.14
2018-05-14T00:04:51.026Z,15.11
2018-05-14T00:07:19.515Z,15.16
2018-05-14T00:09:47.895Z,15.10
2018-05-14T00:12:16.320Z,15.13
2018-05-14T00:14:44.651Z,15.09
2018-05-14T00:17:12.980Z,15.06
2018-05-14T00:19:41.364Z,15.01
2018-05-14T00:22:09.768Z,14.95
2018-05-14T00:24:38.088Z,14.95
2018-05-14T00:27:06.407Z,14.94
2018-05-14T00:29:34.725Z,15.00
2018-05-14T00:32:03.120Z,15.03
2018-05-14T00:34:31.442Z,15.02
2018-05-14T00:36:59.771Z,15.06
2018-05-14T00:39:28.112Z,15.01
2018-05-14T00:41:56.447Z,14.98
2018-05-14T00:44:24.768Z,15.01
2018-05-14T00:46:53.540Z,14.91
2018-05-14T00:49:21.897Z,14.93
2018-05-14T00:51:50.279Z,14.91
2018-05-14T00:54:18.661Z,14.83
2018-05-14T00:56:46.977Z,14.79
2018-05-14T00:59:15.387Z,14.77
2018-05-14T01:01:43.691Z,14.79
2018-05-14T01:04:12.035Z,14.74
2018-05-14T01:06:40.591Z,14.68
2018-05-14T01:09:09.018Z,14.64
2018-05-14T01:11:37.364Z,14.58
2018-05-14T01:14:05.680Z,14.52
2018-05-14T01:16:34.044Z,14.52
2018-05-14T01:19:02.382Z,14.47
2018-05-14T01:21:30.711Z,14.43
2018-05-14T01:23:59.061Z,14.36
2018-05-14T01:26:27.575Z,14.33
2018-05-14T01:29:09.009Z,14.34
2018-05-14T01:31:39.593Z,14.30
2018-05-14T01:34:08.043Z,14.29
2018-05-14T01:36:36.376Z,14.25
2018-05-14T01:39:04.801Z,14.22
2018-05-14T01:41:33.120Z,14.18
2018-05-14T01:44:01.457Z,14.10
2018-05-14T01:46:39.791Z,14.06
2018-05-14T01:49:10.331Z,14.03
2018-05-14T01:51:38.647Z,14.04
2018-05-14T01:54:07.038Z,13.95
2018-05-14T01:56:35.367Z,13.98
2018-05-14T01:59:03.695Z,13.90
2018-05-14T02:01:32.203Z,13.90
2018-05-14T02:04:00.538Z,13.85
2018-05-14T02:06:28.982Z,13.87
2018-05-14T02:08:57.325Z,13.82
2018-05-14T02:11:25.680Z,13.81
2018-05-14T02:13:54.052Z,13.77
2018-05-14T02:16:22.371Z,13.72
2018-05-14T02:18:50.718Z,13.69
2018-05-14T02:21:19.241Z,13.69
2018-05-14T02:23:48.036Z,13.72
2018-05-14T02:26:16.362Z,13.71
2018-05-14T02:31:23.749Z,13.76
2018-05-14T02:33:52.082Z,13.76
2018-05-14T02:36:20.411Z,13.74
2018-05-14T02:38:48.745Z,13.75
2018-05-14T02:41:18.198Z,13.72
2018-05-14T02:43:46.543Z,13.58
2018-05-14T02:46:14.927Z,13.50
2018-05-14T02:48:43.269Z,13.49
2018-05-14T02:51:11.587Z,13.44
2018-05-14T02:53:39.930Z,13.36
2018-05-14T02:56:08.422Z,13.28
2018-05-14T02:58:36.753Z,13.33
2018-05-14T03:01:05.081Z,13.29
2018-05-14T03:03:33.555Z,13.26
2018-05-14T03:06:01.930Z,13.21
2018-05-14T03:08:30.256Z,13.16
2018-05-14T03:10:58.607Z,13.18
2018-05-14T03:13:26.920Z,13.13
2018-05-14T03:15:55.259Z,13.12
2018-05-14T03:18:23.597Z,13.09
2018-05-14T03:20:52.625Z,13.01
2018-05-14T03:23:21.188Z,13.04
2018-05-14T03:25:49.775Z,12.96
2018-05-14T03:28:18.105Z,12.98
2018-05-14T03:30:48.217Z,13.01
2018-05-14T03:33:16.569Z,12.99
2018-05-14T03:35:44.894Z,12.98
2018-05-14T03:38:13.527Z,12.96
2018-05-14T03:40:41.896Z,12.96
2018-05-14T03:43:10.552Z,12.97
2018-05-14T03:45:38.892Z,12.99
2018-05-14T03:48:07.264Z,12.99
2018-05-14T03:50:36.427Z,13.00
2018-05-14T03:53:04.752Z,12.99
2018-05-14T03:55:33.059Z,12.98
2018-05-14T03:58:01.364Z,12.98
2018-05-14T04:00:41.711Z,12.95
2018-05-14T04:03:21.989Z,12.96
2018-05-14T04:06:02.382Z,13.00
2018-05-14T04:08:30.771Z,13.07
2018-05-14T04:10:59.234Z,13.03
2018-05-14T04:13:27.668Z,13.06
2018-05-14T04:15:56.046Z,13.10
2018-05-14T04:18:24.387Z,13.23
2018-05-14T04:20:52.709Z,13.27
2018-05-14T04:23:21.140Z,13.29
2018-05-14T04:25:49.488Z,13.36
2018-05-14T04:28:17.830Z,13.44
2018-05-14T04:30:46.242Z,13.51
2018-05-14T04:33:14.585Z,13.59
2018-05-14T04:35:42.887Z,13.63
2018-05-14T04:38:11.228Z,13.69
2018-05-14T04:40:39.674Z,13.81
2018-05-14T04:43:08.024Z,13.87
2018-05-14T04:45:36.457Z,13.92
2018-05-14T04:48:04.847Z,14.03
2018-05-14T04:50:33.219Z,14.15
2018-05-14T04:53:01.629Z,14.24
2018-05-14T04:55:30.036Z,14.34
2018-05-14T04:57:58.375Z,14.36
2018-05-14T05:00:26.690Z,14.50
2018-05-14T05:02:55.899Z,14.59
2018-05-14T05:05:24.237Z,14.77
2018-05-14T05:07:52.603Z,14.98
2018-05-14T05:10:20.967Z,15.38
2018-05-14T05:12:49.305Z,15.52
2018-05-14T05:15:17.669Z,15.59
2018-05-14T05:17:46.075Z,15.54
2018-05-14T05:20:14.451Z,15.56
2018-05-14T05:22:42.799Z,15.60
2018-05-14T05:25:11.170Z,15.60
2018-05-14T05:27:39.555Z,15.67
2018-05-14T05:30:07.884Z,15.66
2018-05-14T05:32:36.216Z,15.77
2018-05-14T05:35:04.548Z,15.86
2018-05-14T05:37:32.872Z,15.98
2018-05-14T05:40:01.209Z,16.07
2018-05-14T05:42:29.610Z,16.23
2018-05-14T05:44:57.934Z,16.39
2018-05-14T05:47:26.267Z,16.76
2018-05-14T05:49:54.647Z,17.27
2018-05-14T05:52:22.996Z,17.92
2018-05-14T05:54:51.315Z,19.75
2018-05-14T05:57:19.743Z,21.33
2018-05-14T05:59:48.085Z,22.55
2018-05-14T06:02:16.538Z,23.09
2018-05-14T06:04:44.876Z,24.40
2018-05-14T06:07:13.214Z,25.31
2018-05-14T06:09:41.595Z,26.42
2018-05-14T06:12:09.942Z,26.87
2018-05-14T06:14:38.276Z,27.58
2018-05-14T06:17:06.668Z,27.95
2018-05-14T06:19:35.063Z,26.81
2018-05-14T06:22:03.549Z,27.18
2018-05-14T06:24:31.882Z,27.69
2018-05-14T06:27:00.230Z,27.59
2018-05-14T06:29:28.625Z,27.12
2018-05-14T06:31:56.968Z,26.97
2018-05-14T06:34:25.308Z,27.39
2018-05-14T06:36:53.718Z,27.69
2018-05-14T06:39:22.062Z,27.18
2018-05-14T06:41:50.510Z,27.60
2018-05-14T06:44:18.941Z,28.00
2018-05-14T06:46:47.182Z,28.17
2018-05-14T06:49:15.535Z,28.69
2018-05-14T06:51:43.967Z,29.71
2018-05-14T06:54:12.295Z,30.46
2018-05-14T06:56:40.611Z,31.16
2018-05-14T06:59:09.031Z,30.56
2018-05-14T07:01:37.366Z,30.23
2018-05-14T07:04:05.815Z,30.66
2018-05-14T07:06:34.208Z,30.13
2018-05-14T07:09:02.580Z,30.42
2018-05-14T07:11:31.050Z,31.35
2018-05-14T07:13:59.390Z,32.08
2018-05-14T07:16:27.717Z,31.60
2018-05-14T07:18:56.283Z,31.92
2018-05-14T07:21:24.619Z,32.48
2018-05-14T07:23:53.015Z,31.20
2018-05-14T07:26:21.458Z,31.16
2018-05-14T07:28:49.841Z,32.11
2018-05-14T07:31:18.240Z,31.55
2018-05-14T07:33:46.581Z,32.84
2018-05-14T07:36:15.002Z,31.22
2018-05-14T07:38:43.246Z,30.74
2018-05-14T07:41:11.607Z,30.67
2018-05-14T07:43:40.068Z,30.83
2018-05-14T07:46:13.081Z,30.42
2018-05-14T07:48:41.391Z,31.21
2018-05-14T07:51:10.025Z,32.02
2018-05-14T07:53:38.128Z,32.76
2018-05-14T07:56:06.451Z,32.09
2018-05-14T07:58:34.783Z,32.02
2018-05-14T08:01:03.153Z,31.43
2018-05-14T08:03:31.501Z,30.67
2018-05-14T08:05:59.830Z,29.96
2018-05-14T08:08:28.247Z,30.81
2018-05-14T08:10:56.658Z,31.03
2018-05-14T08:13:24.990Z,30.84
2018-05-14T08:15:53.306Z,30.65
2018-05-14T08:18:21.687Z,30.35
2018-05-14T08:20:50.020Z,29.62
2018-05-14T08:23:18.378Z,28.38
2018-05-14T08:25:46.719Z,28.44
2018-05-14T08:28:15.160Z,28.02
2018-05-14T08:30:43.484Z,27.55
2018-05-14T08:33:11.796Z,28.12
2018-05-14T08:35:40.237Z,28.66
2018-05-14T08:38:08.555Z,28.76
2018-05-14T08:40:36.880Z,29.06
2018-05-14T08:43:05.213Z,28.67
2018-05-14T08:45:33.612Z,29.03
2018-05-14T08:48:01.947Z,28.99
2018-05-14T08:50:30.288Z,28.56
2018-05-14T08:52:58.780Z,29.07
2018-05-14T08:55:27.216Z,29.97
2018-05-14T08:57:55.532Z,29.80
2018-05-14T09:00:23.871Z,29.33
2018-05-14T09:02:52.428Z,29.75
2018-05-14T09:05:20.563Z,28.71
2018-05-14T09:07:48.881Z,29.00
2018-05-14T09:10:17.226Z,29.06
2018-05-14T09:12:45.545Z,28.83
2018-05-14T09:15:13.914Z,29.43
2018-05-14T09:17:42.284Z,28.84
2018-05-14T09:20:10.615Z,29.51
2018-05-14T09:22:38.991Z,29.94
2018-05-14T09:25:07.376Z,29.79
2018-05-14T09:27:35.761Z,28.54
2018-05-14T09:30:04.122Z,28.47
2018-05-14T09:32:32.439Z,28.58
2018-05-14T09:35:00.765Z,28.89
2018-05-14T09:37:29.140Z,28.68
2018-05-14T09:39:57.524Z,28.06
2018-05-14T09:42:25.883Z,28.32
2018-05-14T09:44:54.206Z,28.86
2018-05-14T09:47:22.611Z,28.79
2018-05-14T09:49:50.949Z,28.16
2018-05-14T09:52:19.325Z,28.34
2018-05-14T09:54:47.637Z,27.95
2018-05-14T09:57:16.006Z,27.91
2018-05-14T09:59:44.348Z,28.19
2018-05-14T10:02:12.683Z,28.69
2018-05-14T10:04:41.008Z,28.94
2018-05-14T10:07:09.362Z,28.92
2018-05-14T10:09:37.707Z,29.02
2018-05-14T10:12:06.105Z,28.98
2018-05-14T10:14:34.433Z,28.39
2018-05-14T10:17:02.778Z,28.36
2018-05-14T10:19:31.097Z,28.80
2018-05-14T10:21:59.464Z,29.02
2018-05-14T10:24:27.877Z,28.87
2018-05-14T10:26:56.219Z,29.90
2018-05-14T10:29:24.561Z,29.64
2018-05-14T10:31:52.972Z,29.92
2018-05-14T10:34:21.246Z,29.63
2018-05-14T10:36:49.601Z,29.33
2018-05-14T10:39:17.927Z,29.70
2018-05-14T10:41:46.264Z,29.04
2018-05-14T10:44:14.613Z,29.30
2018-05-14T10:46:43.051Z,29.85
2018-05-14T10:49:11.500Z,29.18
2018-05-14T10:51:39.831Z,29.86
2018-05-14T10:54:08.165Z,30.42
2018-05-14T10:56:36.573Z,30.62
2018-05-14T10:59:04.968Z,30.08
2018-05-14T11:01:33.296Z,30.58
2018-05-14T11:04:01.629Z,30.70
2018-05-14T11:06:29.991Z,30.01
2018-05-14T11:08:58.358Z,30.02
2018-05-14T11:11:26.709Z,29.69
2018-05-14T11:13:55.006Z,28.87
2018-05-14T11:16:23.402Z,29.21
2018-05-14T11:18:51.756Z,29.12
2018-05-14T11:21:20.147Z,29.05
2018-05-14T11:23:48.462Z,29.60
2018-05-14T11:26:16.797Z,29.63
2018-05-14T11:28:45.212Z,29.59
2018-05-14T11:31:13.725Z,29.96
2018-05-14T11:33:42.035Z,30.21
2018-05-14T11:36:10.394Z,30.84
2018-05-14T11:38:38.770Z,31.69
2018-05-14T11:41:07.134Z,31.24
2018-05-14T11:43:35.978Z,31.12
2018-05-14T11:46:04.431Z,30.88
2018-05-14T11:48:32.995Z,29.62
2018-05-14T11:51:01.353Z,29.29
2018-05-14T11:53:29.684Z,30.17
2018-05-14T11:55:58.008Z,30.70
2018-05-14T11:58:26.376Z,30.89
2018-05-14T12:00:54.793Z,31.82
2018-05-14T12:03:23.137Z,31.16
2018-05-14T12:05:51.469Z,30.74
2018-05-14T12:08:19.857Z,30.47
2018-05-14T12:10:48.187Z,30.35
2018-05-14T12:13:16.541Z,30.77
2018-05-14T12:15:44.858Z,31.44
2018-05-14T12:18:13.308Z,31.12
2018-05-14T12:20:41.537Z,31.06
2018-05-14T12:23:09.908Z,31.27
2018-05-14T12:25:38.320Z,30.54
2018-05-14T12:28:06.568Z,31.02
2018-05-14T12:30:34.941Z,31.51
2018-05-14T12:33:03.487Z,31.56
2018-05-14T12:35:31.778Z,31.08
2018-05-14T12:38:00.147Z,30.29
2018-05-14T12:40:28.550Z,30.94
2018-05-14T12:42:56.915Z,31.38
2018-05-14T12:45:25.238Z,31.31
2018-05-14T12:47:53.662Z,31.93
2018-05-14T12:50:22.005Z,31.89
2018-05-14T12:52:50.407Z,32.29
2018-05-14T12:55:18.719Z,32.04
2018-05-14T12:57:47.054Z,31.49
2018-05-14T13:00:15.420Z,31.74
2018-05-14T13:02:43.795Z,31.44
2018-05-14T13:05:12.116Z,31.32
2018-05-14T13:07:40.658Z,30.94
2018-05-14T13:10:09.048Z,31.50
2018-05-14T13:12:37.443Z,30.89
2018-05-14T13:15:05.774Z,30.84
2018-05-14T13:17:34.085Z,31.19
2018-05-14T13:20:02.523Z,31.19
2018-05-14T13:22:30.923Z,30.78
2018-05-14T13:24:59.310Z,30.63
2018-05-14T13:27:27.640Z,30.19
2018-05-14T13:29:56.287Z,30.46
2018-05-14T13:32:24.707Z,30.41
2018-05-14T13:34:53.052Z,30.30
2018-05-14T13:37:21.518Z,30.80
2018-05-14T13:39:49.860Z,31.23
2018-05-14T13:42:18.177Z,30.61
2018-05-14T13:44:46.513Z,29.79
2018-05-14T13:47:15.447Z,29.26
2018-05-14T13:49:43.792Z,29.47
2018-05-14T13:52:12.122Z,29.15
2018-05-14T13:54:40.544Z,29.54
2018-05-14T13:57:08.940Z,29.19
2018-05-14T13:59:37.329Z,29.29
2018-05-14T14:02:05.693Z,28.25
2018-05-14T14:04:34.130Z,27.51
2018-05-14T14:07:02.477Z,27.61
2018-05-14T14:09:30.907Z,27.64
2018-05-14T14:12:00.104Z,27.16
2018-05-14T14:14:28.412Z,28.36
2018-05-14T14:16:56.836Z,28.84
2018-05-14T14:19:25.128Z,28.92
2018-05-14T14:21:53.496Z,29.00
2018-05-14T14:24:22.044Z,28.49
2018-05-14T14:26:50.209Z,28.51
2018-05-14T14:29:18.592Z,28.59
2018-05-14T14:31:46.942Z,29.01
2018-05-14T14:34:15.290Z,28.24
2018-05-14T14:36:43.742Z,27.90
2018-05-14T14:39:12.082Z,27.96
2018-05-14T14:41:40.412Z,28.05
2018-05-14T14:44:08.803Z,28.11
2018-05-14T14:46:37.916Z,27.96
2018-05-14T14:49:06.394Z,28.36
2018-05-14T14:51:34.725Z,28.42
2018-05-14T14:54:03.093Z,28.73
2018-05-14T14:56:31.422Z,28.57
2018-05-14T14:58:59.759Z,28.39
2018-05-14T15:01:28.098Z,28.22
2018-05-14T15:03:56.673Z,27.91
2018-05-14T15:06:25.052Z,28.17
2018-05-14T15:08:53.443Z,27.94
2018-05-14T15:11:21.846Z,27.90
2018-05-14T15:13:50.168Z,27.52
2018-05-14T15:16:18.494Z,27.21
2018-05-14T15:18:46.923Z,26.99
2018-05-14T15:21:16.199Z,26.32
2018-05-14T15:23:44.546Z,27.01
2018-05-14T15:26:12.893Z,26.85
2018-05-14T15:28:41.230Z,26.86
2018-05-14T15:31:09.548Z,26.61
2018-05-14T15:33:38.406Z,26.61
2018-05-14T15:36:06.777Z,26.92
2018-05-14T15:38:35.099Z,26.86
2018-05-14T15:41:03.523Z,26.29
2018-05-14T15:43:32.050Z,26.36
2018-05-14T15:46:00.380Z,26.26
2018-05-14T15:48:28.707Z,25.87
2018-05-14T15:50:59.128Z,26.19
2018-05-14T15:53:27.831Z,26.01
2018-05-14T15:55:56.156Z,25.34
2018-05-14T15:58:24.488Z,25.19
2018-05-14T16:00:52.925Z,24.95
2018-05-14T16:03:21.172Z,24.93
2018-05-14T16:05:53.856Z,24.86
2018-05-14T16:08:22.266Z,24.78
2018-05-14T16:10:51.034Z,24.92
2018-05-14T16:13:19.469Z,24.79
2018-05-14T16:15:47.854Z,24.91
2018-05-14T16:18:16.252Z,24.82
2018-05-14T16:20:44.663Z,24.60
2018-05-14T16:23:12.928Z,24.61
2018-05-14T16:25:41.319Z,24.28
2018-05-14T16:28:09.702Z,24.16
2018-05-14T16:30:38.048Z,24.31
2018-05-14T16:33:06.401Z,24.12
2018-05-14T16:35:34.727Z,24.16
2018-05-14T16:38:03.083Z,23.87
2018-05-14T16:40:31.451Z,23.87
2018-05-14T16:42:59.785Z,23.72
2018-05-14T16:45:28.114Z,23.89
2018-05-14T16:47:56.446Z,23.62
2018-05-14T16:50:24.888Z,23.44
2018-05-14T16:52:53.156Z,23.10
2018-05-14T16:55:21.523Z,22.93
2018-05-14T16:57:50.031Z,22.83
2018-05-14T17:00:18.319Z,22.60
2018-05-14T17:02:46.675Z,22.42
2018-05-14T17:05:15.100Z,22.11
2018-05-14T17:07:43.495Z,21.98
2018-05-14T17:10:11.809Z,21.94
2018-05-14T17:12:40.137Z,21.95
2018-05-14T17:15:08.561Z,21.85
2018-05-14T17:17:36.892Z,21.71
2018-05-14T17:20:05.246Z,21.65
2018-05-14T17:22:33.622Z,21.54
2018-05-14T17:25:02.033Z,21.56
2018-05-14T17:27:30.367Z,21.50
2018-05-14T17:29:58.698Z,21.47
2018-05-14T17:32:27.003Z,21.40
2018-05-14T17:34:55.434Z,21.37
2018-05-14T17:37:23.792Z,21.32
2018-05-14T17:39:52.128Z,21.22
2018-05-14T17:42:20.471Z,21.12
2018-05-14T17:44:49.009Z,21.04
2018-05-14T17:47:17.323Z,20.97
2018-05-14T17:49:45.757Z,20.89
2018-05-14T17:52:14.090Z,20.83
2018-05-14T17:54:42.422Z,20.81
2018-05-14T17:57:10.740Z,20.76
2018-05-14T17:59:39.125Z,20.71
2018-05-14T18:02:07.432Z,20.69
2018-05-14T18:04:35.745Z,20.70
2018-05-14T18:07:04.112Z,20.65
2018-05-14T18:09:32.504Z,20.61
2018-05-14T18:12:00.902Z,20.59
2018-05-14T18:14:29.387Z,20.48
2018-05-14T18:16:57.787Z,20.44
2018-05-14T18:19:26.102Z,20.37
2018-05-14T18:22:00.045Z,20.36
2018-05-14T18:24:28.478Z,20.34
2018-05-14T18:26:56.797Z,20.35
2018-05-14T18:29:31.657Z,20.27
2018-05-14T18:32:04.775Z,20.21
2018-05-14T18:34:39.687Z,20.17
2018-05-14T18:37:08.053Z,20.12
2018-05-14T18:39:36.372Z,20.11
2018-05-14T18:42:04.703Z,20.00
2018-05-14T18:44:33.970Z,19.93
2018-05-14T18:47:02.377Z,19.87
2018-05-14T18:49:30.722Z,19.78
2018-05-14T18:51:59.141Z,19.73
2018-05-14T18:54:27.528Z,19.66
2018-05-14T18:56:55.839Z,19.59
2018-05-14T18:59:24.212Z,19.55
2018-05-14T19:01:52.606Z,19.53
2018-05-14T19:04:21.015Z,19.45
2018-05-14T19:06:49.391Z,19.44
2018-05-14T19:09:17.744Z,19.38
2018-05-14T19:11:50.923Z,19.37
2018-05-14T19:14:19.259Z,19.30
2018-05-14T19:16:53.262Z,19.29
2018-05-14T19:19:21.661Z,19.21
2018-05-14T19:21:49.983Z,19.17
2018-05-14T19:24:18.839Z,19.16
2018-05-14T19:26:47.202Z,19.05
2018-05-14T19:29:21.271Z,19.02
2018-05-14T19:31:49.605Z,19.02
2018-05-14T19:34:23.535Z,18.93
2018-05-14T19:36:51.933Z,18.94
2018-05-14T19:39:25.835Z,18.87
2018-05-14T19:41:54.157Z,18.79
2018-05-14T19:44:22.628Z,18.72
2018-05-14T19:46:50.963Z,18.64
2018-05-14T19:49:19.343Z,18.57
2018-05-14T19:51:47.704Z,18.47
2018-05-14T19:54:16.034Z,18.41
2018-05-14T19:56:44.379Z,18.30
2018-05-14T19:59:12.780Z,18.24
2018-05-14T20:01:41.177Z,18.17
2018-05-14T20:04:09.660Z,18.10
2018-05-14T20:06:37.997Z,18.07
2018-05-14T20:09:06.349Z,17.93
2018-05-14T20:11:34.666Z,17.92
2018-05-14T20:14:03.071Z,17.86
2018-05-14T20:16:31.373Z,17.83
2018-05-14T20:18:59.692Z,17.75
2018-05-14T20:21:28.031Z,17.71
2018-05-14T20:23:56.611Z,17.66
2018-05-14T20:26:24.990Z,17.65
2018-05-14T20:28:53.394Z,17.61
2018-05-14T20:31:21.881Z,17.59
2018-05-14T20:33:50.151Z,17.53
2018-05-14T20:36:18.580Z,17.48
2018-05-14T20:38:46.905Z,17.45
2018-05-14T20:41:15.269Z,17.43
2018-05-14T20:43:43.624Z,17.44
2018-05-14T20:46:12.042Z,17.37
2018-05-14T20:48:40.425Z,17.33
2018-05-14T20:51:08.767Z,17.27
2018-05-14T20:53:37.120Z,17.23
2018-05-14T20:56:05.420Z,17.18
2018-05-14T20:58:33.784Z,17.17
2018-05-14T21:01:02.115Z,17.15
2018-05-14T21:03:30.472Z,17.12
2018-05-14T21:05:58.818Z,17.07
2018-05-14T21:08:27.386Z,17.00
2018-05-14T21:10:56.756Z,16.95
2018-05-14T21:13:25.138Z,16.96
2018-05-14T21:15:53.463Z,16.87
2018-05-14T21:18:21.840Z,16.84
2018-05-14T21:20:50.251Z,16.77
2018-05-14T21:23:18.645Z,16.76
2018-05-14T21:25:46.989Z,16.71
2018-05-14T21:28:15.312Z,16.67
2018-05-14T21:30:43.818Z,16.62
2018-05-14T21:33:12.221Z,16.52
2018-05-14T21:35:40.528Z,16.48
2018-05-14T21:38:14.604Z,16.41
2018-05-14T21:40:43.510Z,16.39
2018-05-14T21:43:12.180Z,16.37
2018-05-14T21:45:40.525Z,16.35
2018-05-14T21:48:08.912Z,16.32
2018-05-14T21:50:37.259Z,16.21
2018-05-14T21:53:12.354Z,16.19
2018-05-14T21:55:40.738Z,16.17
2018-05-14T21:58:09.068Z,16.13
2018-05-14T22:00:37.427Z,16.09
2018-05-14T22:03:05.848Z,16.05
2018-05-14T22:05:34.236Z,16.05
2018-05-14T22:08:02.596Z,16.01
2018-05-14T22:10:30.923Z,15.93
2018-05-14T22:12:59.243Z,15.84
2018-05-14T22:15:27.565Z,15.78
2018-05-14T22:17:56.007Z,15.61
2018-05-14T22:20:24.379Z,15.51
2018-05-14T22:22:52.716Z,15.45
2018-05-14T22:25:21.052Z,15.34
2018-05-14T22:27:49.381Z,15.25
2018-05-14T22:30:17.744Z,15.17
2018-05-14T22:32:46.071Z,15.13
2018-05-14T22:35:14.394Z,15.01
2018-05-14T22:37:42.726Z,14.92
2018-05-14T22:40:11.119Z,14.80
2018-05-14T22:42:39.584Z,14.69
2018-05-14T22:45:07.993Z,14.65
2018-05-14T22:47:36.342Z,14.51
2018-05-14T22:50:04.671Z,14.45
2018-05-14T22:52:33.022Z,14.31
2018-05-14T22:55:01.323Z,14.27
2018-05-14T22:57:29.668Z,14.20
2018-05-14T22:59:57.994Z,14.09
2018-05-14T23:02:26.359Z,14.08
2018-05-14T23:04:54.744Z,14.05
2018-05-14T23:07:23.079Z,14.01
2018-05-14T23:09:51.395Z,13.91
2018-05-14T23:12:19.813Z,13.89
2018-05-14T23:14:48.204Z,13.84
2018-05-14T23:19:55.665Z,13.78
2018-05-14T23:22:43.878Z,13.74
2018-05-14T23:25:12.231Z,13.66
2018-05-14T23:27:40.560Z,13.60
2018-05-14T23:30:09.002Z,13.57
2018-05-14T23:32:37.464Z,13.54
2018-05-14T23:35:05.860Z,13.49
2018-05-14T23:37:34.195Z,13.51
2018-05-14T23:40:02.550Z,13.47
2018-05-14T23:42:30.887Z,13.38
2018-05-14T23:44:59.231Z,13.41
2018-05-14T23:47:27.623Z,13.40
2018-05-14T23:49:55.970Z,13.40
2018-05-14T23:52:24.286Z,13.37
2018-05-14T23:54:52.696Z,13.36
2018-05-14T23:57:21.005Z,13.38
2018-05-14T23:59:49.379Z,13.40
